sensor_id;sensor_type;location;lat;lon;timestamp;pressure;altitude;pressure_sealevel;temperature;humidity
78309;BME280;67566;42.022;21.356;2023-08-20T00:00:17;98524.47;;;25.92;49.76
78309;BME280;67566;42.022;21.356;2023-08-20T00:02:46;98528.75;;;25.89;50.18
78309;BME280;67566;42.022;21.356;2023-08-20T00:05:13;98534.31;;;25.78;50.79
78309;BME280;67566;42.022;21.356;2023-08-20T00:07:39;98525.41;;;25.74;50.82
78309;BME280;67566;42.022;21.356;2023-08-20T00:10:05;98532.03;;;25.73;50.58
78309;BME280;67566;42.022;21.356;2023-08-20T00:12:31;98533.59;;;25.74;50.30
78309;BME280;67566;42.022;21.356;2023-08-20T00:14:59;98535.97;;;25.72;51.08
78309;BME280;67566;42.022;21.356;2023-08-20T00:17:31;98534.09;;;25.62;50.57
78309;BME280;67566;42.022;21.356;2023-08-20T00:19:57;98538.34;;;25.63;50.99
78309;BME280;67566;42.022;21.356;2023-08-20T00:22:23;98550.84;;;25.60;50.74
78309;BME280;67566;42.022;21.356;2023-08-20T00:24:53;98539.59;;;25.58;50.93
78309;BME280;67566;42.022;21.356;2023-08-20T00:27:19;98546.25;;;25.54;50.49
78309;BME280;67566;42.022;21.356;2023-08-20T00:29:44;98554.56;;;25.36;50.49
78309;BME280;67566;42.022;21.356;2023-08-20T00:32:10;98551.47;;;25.30;51.30
78309;BME280;67566;42.022;21.356;2023-08-20T00:34:36;98551.88;;;25.21;51.34
78309;BME280;67566;42.022;21.356;2023-08-20T00:37:02;98551.53;;;25.19;51.39
78309;BME280;67566;42.022;21.356;2023-08-20T00:39:28;98553.47;;;25.19;50.93
78309;BME280;67566;42.022;21.356;2023-08-20T00:41:54;98555.81;;;25.20;52.00
78309;BME280;67566;42.022;21.356;2023-08-20T00:44:20;98553.47;;;25.19;51.45
78309;BME280;67566;42.022;21.356;2023-08-20T00:46:45;98553.84;;;25.21;51.79
78309;BME280;67566;42.022;21.356;2023-08-20T00:49:11;98551.91;;;25.18;51.40
78309;BME280;67566;42.022;21.356;2023-08-20T00:51:37;98553.16;;;25.10;51.92
78309;BME280;67566;42.022;21.356;2023-08-20T00:54:03;98547.34;;;25.00;51.72
78309;BME280;67566;42.022;21.356;2023-08-20T00:56:29;98550.09;;;24.97;51.96
78309;BME280;67566;42.022;21.356;2023-08-20T00:58:54;98557.53;;;24.93;51.33
78309;BME280;67566;42.022;21.356;2023-08-20T01:01:21;98557.53;;;24.93;52.10
78309;BME280;67566;42.022;21.356;2023-08-20T01:03:47;98554.81;;;24.93;51.44
78309;BME280;67566;42.022;21.356;2023-08-20T01:09:13;98547.03;;;24.91;51.48
78309;BME280;67566;42.022;21.356;2023-08-20T01:11:46;98541.59;;;24.91;51.72
78309;BME280;67566;42.022;21.356;2023-08-20T01:14:15;98549.75;;;24.91;51.66
78309;BME280;67566;42.022;21.356;2023-08-20T01:16:41;98555.56;;;24.93;52.35
78309;BME280;67566;42.022;21.356;2023-08-20T01:19:10;98556.38;;;24.86;52.38
78309;BME280;67566;42.022;21.356;2023-08-20T01:21:53;98550.94;;;24.86;52.21
78309;BME280;67566;42.022;21.356;2023-08-20T01:29:50;98558.34;;;24.86;52.36
78309;BME280;67566;42.022;21.356;2023-08-20T01:32:16;98560.66;;;24.91;52.24
78309;BME280;67566;42.022;21.356;2023-08-20T01:34:43;98557.56;;;24.89;52.10
78309;BME280;67566;42.022;21.356;2023-08-20T01:37:08;98558.69;;;24.92;52.68
78309;BME280;67566;42.022;21.356;2023-08-20T01:39:34;98564.53;;;24.97;51.72
78309;BME280;67566;42.022;21.356;2023-08-20T01:41:59;98556.00;;;24.84;52.33
78309;BME280;67566;42.022;21.356;2023-08-20T01:44:25;98560.72;;;24.77;53.13
78309;BME280;67566;42.022;21.356;2023-08-20T01:46:50;98571.69;;;24.62;52.94
78309;BME280;67566;42.022;21.356;2023-08-20T01:49:15;98568.56;;;24.53;53.01
78309;BME280;67566;42.022;21.356;2023-08-20T01:51:41;98569.78;;;24.48;53.24
78309;BME280;67566;42.022;21.356;2023-08-20T01:54:06;98570.53;;;24.49;52.81
78309;BME280;67566;42.022;21.356;2023-08-20T01:56:32;98573.63;;;24.51;52.85
78309;BME280;67566;42.022;21.356;2023-08-20T01:58:57;98576.75;;;24.53;53.62
78309;BME280;67566;42.022;21.356;2023-08-20T02:01:23;98574.00;;;24.53;53.80
78309;BME280;67566;42.022;21.356;2023-08-20T02:03:48;98572.88;;;24.54;53.55
78309;BME280;67566;42.022;21.356;2023-08-20T02:06:14;98577.16;;;24.55;54.13
78309;BME280;67566;42.022;21.356;2023-08-20T02:08:39;98569.78;;;24.56;53.85
78309;BME280;67566;42.022;21.356;2023-08-20T02:11:05;98570.94;;;24.55;53.99
78309;BME280;67566;42.022;21.356;2023-08-20T02:13:31;98566.28;;;24.55;54.00
78309;BME280;67566;42.022;21.356;2023-08-20T02:16:03;98566.66;;;24.57;53.43
78309;BME280;67566;42.022;21.356;2023-08-20T02:18:32;98564.69;;;24.58;53.70
78309;BME280;67566;42.022;21.356;2023-08-20T02:21:00;98576.38;;;24.55;53.10
78309;BME280;67566;42.022;21.356;2023-08-20T02:23:32;98577.56;;;24.54;53.65
78309;BME280;67566;42.022;21.356;2023-08-20T02:25:58;98575.97;;;24.53;53.55
78309;BME280;67566;42.022;21.356;2023-08-20T02:28:23;98582.59;;;24.52;53.78
78309;BME280;67566;42.022;21.356;2023-08-20T02:30:49;98579.09;;;24.44;53.49
78309;BME280;67566;42.022;21.356;2023-08-20T02:33:17;98585.75;;;24.43;53.88
78309;BME280;67566;42.022;21.356;2023-08-20T02:35:43;98581.84;;;24.40;54.26
78309;BME280;67566;42.022;21.356;2023-08-20T02:38:08;98583.41;;;24.38;53.90
78309;BME280;67566;42.022;21.356;2023-08-20T02:40:45;98587.31;;;24.37;54.92
78309;BME280;67566;42.022;21.356;2023-08-20T02:43:11;98590.44;;;24.28;54.04
78309;BME280;67566;42.022;21.356;2023-08-20T02:45:41;98587.34;;;24.22;54.15
78309;BME280;67566;42.022;21.356;2023-08-20T02:48:07;98590.84;;;24.19;54.32
78309;BME280;67566;42.022;21.356;2023-08-20T02:50:32;98587.34;;;24.19;55.20
78309;BME280;67566;42.022;21.356;2023-08-20T02:52:58;98588.13;;;24.16;55.37
78309;BME280;67566;42.022;21.356;2023-08-20T02:55:23;98594.72;;;24.15;55.17
78309;BME280;67566;42.022;21.356;2023-08-20T02:57:49;98588.53;;;24.14;55.17
78309;BME280;67566;42.022;21.356;2023-08-20T03:00:14;98592.00;;;24.15;54.59
78309;BME280;67566;42.022;21.356;2023-08-20T03:02:40;98585.81;;;24.14;56.02
78309;BME280;67566;42.022;21.356;2023-08-20T03:05:10;98596.31;;;24.12;56.18
78309;BME280;67566;42.022;21.356;2023-08-20T03:07:36;98604.09;;;23.99;55.64
78309;BME280;67566;42.022;21.356;2023-08-20T03:10:02;98603.69;;;23.93;55.45
78309;BME280;67566;42.022;21.356;2023-08-20T03:12:28;98599.06;;;23.90;55.97
78309;BME280;67566;42.022;21.356;2023-08-20T03:14:54;98595.16;;;23.84;56.20
78309;BME280;67566;42.022;21.356;2023-08-20T03:17:20;98604.09;;;23.81;55.65
78309;BME280;67566;42.022;21.356;2023-08-20T03:19:58;98606.78;;;23.67;56.90
78309;BME280;67566;42.022;21.356;2023-08-20T03:22:25;98601.72;;;23.58;56.46
78309;BME280;67566;42.022;21.356;2023-08-20T03:24:51;98605.59;;;23.53;56.80
78309;BME280;67566;42.022;21.356;2023-08-20T03:27:17;98604.44;;;23.54;56.48
78309;BME280;67566;42.022;21.356;2023-08-20T03:29:43;98605.59;;;23.57;57.00
78309;BME280;67566;42.022;21.356;2023-08-20T03:32:10;98607.16;;;23.58;56.98
78309;BME280;67566;42.022;21.356;2023-08-20T03:34:36;98611.84;;;23.58;57.13
78309;BME280;67566;42.022;21.356;2023-08-20T03:37:02;98615.31;;;23.58;56.71
78309;BME280;67566;42.022;21.356;2023-08-20T03:39:28;98614.94;;;23.56;57.47
78309;BME280;67566;42.022;21.356;2023-08-20T03:41:53;98622.28;;;23.48;57.18
78309;BME280;67566;42.022;21.356;2023-08-20T03:44:19;98613.75;;;23.46;57.70
78309;BME280;67566;42.022;21.356;2023-08-20T03:46:45;98620.31;;;23.34;57.75
78309;BME280;67566;42.022;21.356;2023-08-20T03:49:10;98622.28;;;23.34;57.39
78309;BME280;67566;42.022;21.356;2023-08-20T03:51:36;98616.84;;;23.34;57.92
78309;BME280;67566;42.022;21.356;2023-08-20T03:54:02;98607.94;;;23.33;57.85
78309;BME280;67566;42.022;21.356;2023-08-20T03:56:27;98622.66;;;23.36;57.83
78309;BME280;67566;42.022;21.356;2023-08-20T03:58:53;98617.22;;;23.32;57.81
78309;BME280;67566;42.022;21.356;2023-08-20T04:01:18;98618.03;;;23.29;57.53
78309;BME280;67566;42.022;21.356;2023-08-20T04:03:46;98616.44;;;23.28;57.28
78309;BME280;67566;42.022;21.356;2023-08-20T04:06:11;98628.09;;;23.29;58.12
78309;BME280;67566;42.022;21.356;2023-08-20T04:08:37;98614.88;;;23.31;58.34
78309;BME280;67566;42.022;21.356;2023-08-20T04:11:02;98625.38;;;23.32;58.09
78309;BME280;67566;42.022;21.356;2023-08-20T04:13:29;98623.03;;;23.34;57.71
78309;BME280;67566;42.022;21.356;2023-08-20T04:15:54;98622.28;;;23.34;57.05
78309;BME280;67566;42.022;21.356;2023-08-20T04:18:20;98626.53;;;23.24;57.21
78309;BME280;67566;42.022;21.356;2023-08-20T04:20:46;98621.09;;;23.21;57.72
78309;BME280;67566;42.022;21.356;2023-08-20T04:23:11;98627.31;;;23.21;57.50
78309;BME280;67566;42.022;21.356;2023-08-20T04:25:36;98632.34;;;23.23;57.95
78309;BME280;67566;42.022;21.356;2023-08-20T04:28:02;98625.34;;;23.18;57.92
78309;BME280;67566;42.022;21.356;2023-08-20T04:30:28;98635.44;;;23.17;58.50
78309;BME280;67566;42.022;21.356;2023-08-20T04:32:53;98631.94;;;23.13;58.26
78309;BME280;67566;42.022;21.356;2023-08-20T04:35:19;98623.78;;;23.13;58.05
78309;BME280;67566;42.022;21.356;2023-08-20T04:37:44;98620.69;;;23.15;58.27
78309;BME280;67566;42.022;21.356;2023-08-20T04:40:10;98625.72;;;23.13;58.55
78309;BME280;67566;42.022;21.356;2023-08-20T04:42:36;98628.00;;;23.04;59.34
78309;BME280;67566;42.022;21.356;2023-08-20T04:45:01;98631.91;;;23.06;58.86
78309;BME280;67566;42.022;21.356;2023-08-20T04:47:27;98628.44;;;23.13;59.23
78309;BME280;67566;42.022;21.356;2023-08-20T04:49:52;98630.00;;;23.14;59.35
78309;BME280;67566;42.022;21.356;2023-08-20T04:52:17;98628.44;;;23.16;59.15
78309;BME280;67566;42.022;21.356;2023-08-20T04:54:45;98637.00;;;23.22;58.91
78309;BME280;67566;42.022;21.356;2023-08-20T04:57:11;98638.19;;;23.25;59.83
78309;BME280;67566;42.022;21.356;2023-08-20T04:59:36;98639.75;;;23.29;59.71
78309;BME280;67566;42.022;21.356;2023-08-20T05:02:02;98630.03;;;23.32;59.33
78309;BME280;67566;42.022;21.356;2023-08-20T05:04:27;98624.22;;;23.37;59.20
78309;BME280;67566;42.022;21.356;2023-08-20T05:06:53;98629.28;;;23.46;58.88
78309;BME280;67566;42.022;21.356;2023-08-20T05:09:18;98634.34;;;23.54;58.92
78309;BME280;67566;42.022;21.356;2023-08-20T05:11:44;98630.88;;;23.58;58.71
78309;BME280;67566;42.022;21.356;2023-08-20T05:14:09;98633.19;;;23.70;59.09
78309;BME280;67566;42.022;21.356;2023-08-20T05:16:35;98635.16;;;23.80;58.17
78309;BME280;67566;42.022;21.356;2023-08-20T05:19:00;98634.38;;;23.87;58.07
78309;BME280;67566;42.022;21.356;2023-08-20T05:21:26;98636.31;;;24.01;56.62
78309;BME280;67566;42.022;21.356;2023-08-20T05:23:51;98641.38;;;24.13;56.19
78309;BME280;67566;42.022;21.356;2023-08-20T05:26:16;98640.19;;;24.21;55.84
78309;BME280;67566;42.022;21.356;2023-08-20T05:28:42;98641.38;;;24.24;54.90
78309;BME280;67566;42.022;21.356;2023-08-20T05:31:07;98642.88;;;24.32;54.78
78309;BME280;67566;42.022;21.356;2023-08-20T05:33:33;98636.28;;;24.37;54.97
78309;BME280;67566;42.022;21.356;2023-08-20T05:35:59;98640.94;;;24.43;54.45
78309;BME280;67566;42.022;21.356;2023-08-20T05:38:25;98637.44;;;24.57;54.14
78309;BME280;67566;42.022;21.356;2023-08-20T05:40:50;98636.22;;;24.69;54.45
78309;BME280;67566;42.022;21.356;2023-08-20T05:43:16;98632.69;;;24.79;54.45
78309;BME280;67566;42.022;21.356;2023-08-20T05:45:41;98634.97;;;24.92;53.58
78309;BME280;67566;42.022;21.356;2023-08-20T05:48:07;98640.38;;;25.02;53.06
78309;BME280;67566;42.022;21.356;2023-08-20T05:50:32;98641.06;;;25.17;52.73
78309;BME280;67566;42.022;21.356;2023-08-20T05:52:58;98642.19;;;25.31;52.51
78309;BME280;67566;42.022;21.356;2023-08-20T05:55:24;98638.22;;;25.46;51.96
78309;BME280;67566;42.022;21.356;2023-08-20T05:57:49;98643.66;;;25.50;52.51
78309;BME280;67566;42.022;21.356;2023-08-20T06:00:15;98651.81;;;25.53;52.14
78309;BME280;67566;42.022;21.356;2023-08-20T06:02:43;98642.81;;;25.60;52.51
78309;BME280;67566;42.022;21.356;2023-08-20T06:05:09;98648.66;;;25.58;52.54
78309;BME280;67566;42.022;21.356;2023-08-20T06:07:35;98645.91;;;25.58;53.59
78309;BME280;67566;42.022;21.356;2023-08-20T06:10:00;98643.50;;;25.68;52.82
78309;BME280;67566;42.022;21.356;2023-08-20T06:12:26;98636.44;;;25.77;53.94
78309;BME280;67566;42.022;21.356;2023-08-20T06:14:51;98636.75;;;25.87;53.51
78309;BME280;67566;42.022;21.356;2023-08-20T06:17:17;98637.00;;;26.03;53.21
78309;BME280;67566;42.022;21.356;2023-08-20T06:19:44;98632.56;;;26.20;52.29
78309;BME280;67566;42.022;21.356;2023-08-20T06:22:09;98633.59;;;26.37;52.07
78309;BME280;67566;42.022;21.356;2023-08-20T06:24:35;98637.19;;;26.61;50.63
78309;BME280;67566;42.022;21.356;2023-08-20T06:27:00;98630.34;;;26.84;50.95
78309;BME280;67566;42.022;21.356;2023-08-20T06:29:26;98627.38;;;27.02;49.49
78309;BME280;67566;42.022;21.356;2023-08-20T06:31:51;98627.25;;;27.12;48.58
78309;BME280;67566;42.022;21.356;2023-08-20T06:34:17;98635.59;;;27.02;48.38
78309;BME280;67566;42.022;21.356;2023-08-20T06:36:43;98636.81;;;26.97;48.23
78309;BME280;67566;42.022;21.356;2023-08-20T06:39:08;98636.16;;;27.17;48.36
78309;BME280;67566;42.022;21.356;2023-08-20T06:41:34;98637.53;;;27.32;47.39
78309;BME280;67566;42.022;21.356;2023-08-20T06:44:01;98638.13;;;27.47;47.55
78309;BME280;67566;42.022;21.356;2023-08-20T06:46:26;98630.34;;;27.69;47.32
78309;BME280;67566;42.022;21.356;2023-08-20T06:48:52;98634.09;;;27.79;46.18
78309;BME280;67566;42.022;21.356;2023-08-20T06:51:20;98631.50;;;27.72;46.16
78309;BME280;67566;42.022;21.356;2023-08-20T06:53:47;98629.00;;;27.54;46.54
78309;BME280;67566;42.022;21.356;2023-08-20T06:56:12;98629.28;;;27.36;47.66
78309;BME280;67566;42.022;21.356;2023-08-20T06:58:40;98639.28;;;27.46;47.66
78309;BME280;67566;42.022;21.356;2023-08-20T07:01:06;98634.75;;;27.63;46.80
78309;BME280;67566;42.022;21.356;2023-08-20T07:03:37;98634.81;;;27.83;46.85
78309;BME280;67566;42.022;21.356;2023-08-20T07:06:02;98626.16;;;28.12;46.38
78309;BME280;67566;42.022;21.356;2023-08-20T07:08:28;98632.34;;;28.36;46.01
78309;BME280;67566;42.022;21.356;2023-08-20T07:10:53;98628.44;;;28.57;45.50
78309;BME280;67566;42.022;21.356;2023-08-20T07:13:19;98628.47;;;28.77;45.37
78309;BME280;67566;42.022;21.356;2023-08-20T07:15:45;98617.88;;;28.95;44.67
78309;BME280;67566;42.022;21.356;2023-08-20T07:18:10;98628.63;;;29.06;43.10
78309;BME280;67566;42.022;21.356;2023-08-20T07:20:39;98628.28;;;29.24;43.57
78309;BME280;67566;42.022;21.356;2023-08-20T07:23:04;98622.03;;;29.40;43.89
78309;BME280;67566;42.022;21.356;2023-08-20T07:25:30;98616.72;;;29.33;43.05
78309;BME280;67566;42.022;21.356;2023-08-20T07:27:55;98615.28;;;29.45;42.83
78309;BME280;67566;42.022;21.356;2023-08-20T07:30:25;98621.69;;;29.54;41.82
78309;BME280;67566;42.022;21.356;2023-08-20T07:32:51;98612.50;;;29.61;41.79
78309;BME280;67566;42.022;21.356;2023-08-20T07:35:16;98614.50;;;29.77;42.45
78309;BME280;67566;42.022;21.356;2023-08-20T07:37:42;98602.06;;;29.89;41.67
78309;BME280;67566;42.022;21.356;2023-08-20T07:40:08;98599.47;;;29.98;41.29
78309;BME280;67566;42.022;21.356;2023-08-20T07:42:34;98600.06;;;30.06;40.79
78309;BME280;67566;42.022;21.356;2023-08-20T07:45:00;98595.56;;;30.12;41.13
78309;BME280;67566;42.022;21.356;2023-08-20T07:47:26;98600.41;;;30.08;40.35
78309;BME280;67566;42.022;21.356;2023-08-20T07:49:54;98594.66;;;30.31;41.56
78309;BME280;67566;42.022;21.356;2023-08-20T07:52:20;98599.00;;;30.45;40.70
78309;BME280;67566;42.022;21.356;2023-08-20T07:54:45;98592.56;;;30.52;40.43
78309;BME280;67566;42.022;21.356;2023-08-20T07:57:11;98597.78;;;30.76;40.30
78309;BME280;67566;42.022;21.356;2023-08-20T07:59:39;98597.03;;;30.88;40.07
78309;BME280;67566;42.022;21.356;2023-08-20T08:02:05;98592.63;;;30.91;38.77
78309;BME280;67566;42.022;21.356;2023-08-20T08:04:31;98592.66;;;31.03;39.18
78309;BME280;67566;42.022;21.356;2023-08-20T08:06:56;98592.00;;;30.99;38.70
78309;BME280;67566;42.022;21.356;2023-08-20T08:09:31;98593.44;;;31.17;39.13
78309;BME280;67566;42.022;21.356;2023-08-20T08:11:57;98592.22;;;31.31;39.18
78309;BME280;67566;42.022;21.356;2023-08-20T08:14:26;98594.19;;;31.43;39.99
78309;BME280;67566;42.022;21.356;2023-08-20T08:16:52;98591.34;;;31.59;38.76
78309;BME280;67566;42.022;21.356;2023-08-20T08:19:18;98593.50;;;31.77;38.24
78309;BME280;67566;42.022;21.356;2023-08-20T08:21:45;98592.56;;;31.93;38.19
78309;BME280;67566;42.022;21.356;2023-08-20T08:24:11;98584.25;;;32.06;37.96
78309;BME280;67566;42.022;21.356;2023-08-20T08:26:40;98586.44;;;32.11;38.40
78309;BME280;67566;42.022;21.356;2023-08-20T08:29:07;98587.63;;;32.23;37.92
78309;BME280;67566;42.022;21.356;2023-08-20T08:31:33;98579.53;;;32.29;37.04
78309;BME280;67566;42.022;21.356;2023-08-20T08:33:59;98580.06;;;32.36;37.06
78309;BME280;67566;42.022;21.356;2023-08-20T08:36:25;98577.03;;;32.44;37.38
78309;BME280;67566;42.022;21.356;2023-08-20T08:38:52;98572.16;;;32.48;36.76
78309;BME280;67566;42.022;21.356;2023-08-20T08:41:23;98578.97;;;32.56;37.13
78309;BME280;67566;42.022;21.356;2023-08-20T08:43:50;98566.78;;;32.66;37.00
78309;BME280;67566;42.022;21.356;2023-08-20T08:46:16;98569.91;;;32.78;36.73
78309;BME280;67566;42.022;21.356;2023-08-20T08:48:44;98566.09;;;32.84;36.78
78309;BME280;67566;42.022;21.356;2023-08-20T08:51:13;98567.50;;;32.89;36.65
78309;BME280;67566;42.022;21.356;2023-08-20T08:53:41;98570.44;;;32.95;36.08
78309;BME280;67566;42.022;21.356;2023-08-20T08:56:07;98573.81;;;32.99;35.87
78309;BME280;67566;42.022;21.356;2023-08-20T08:58:32;98572.75;;;32.96;36.10
78309;BME280;67566;42.022;21.356;2023-08-20T09:00:58;98572.59;;;33.00;35.36
78309;BME280;67566;42.022;21.356;2023-08-20T09:03:24;98568.22;;;33.11;35.68
78309;BME280;67566;42.022;21.356;2023-08-20T09:05:59;98566.22;;;33.12;34.96
78309;BME280;67566;42.022;21.356;2023-08-20T09:08:30;98558.63;;;33.25;35.75
78309;BME280;67566;42.022;21.356;2023-08-20T09:10:57;98562.31;;;33.32;34.50
78309;BME280;67566;42.022;21.356;2023-08-20T09:13:24;98560.00;;;33.39;34.96
78309;BME280;67566;42.022;21.356;2023-08-20T09:15:53;98546.06;;;33.43;34.66
78309;BME280;67566;42.022;21.356;2023-08-20T09:18:19;98555.75;;;33.47;35.19
78309;BME280;67566;42.022;21.356;2023-08-20T09:20:47;98549.16;;;33.54;34.31
78309;BME280;67566;42.022;21.356;2023-08-20T09:23:14;98552.22;;;33.56;35.05
78309;BME280;67566;42.022;21.356;2023-08-20T09:25:41;98546.41;;;33.63;34.97
78309;BME280;67566;42.022;21.356;2023-08-20T09:28:07;98548.56;;;33.59;33.66
78309;BME280;67566;42.022;21.356;2023-08-20T09:30:33;98543.66;;;33.63;34.22
78309;BME280;67566;42.022;21.356;2023-08-20T09:35:30;98544.00;;;33.75;34.24
78309;BME280;67566;42.022;21.356;2023-08-20T09:37:59;98544.75;;;33.84;33.59
78309;BME280;67566;42.022;21.356;2023-08-20T09:40:26;98538.63;;;33.99;33.63
78309;BME280;67566;42.022;21.356;2023-08-20T09:42:51;98529.88;;;34.10;33.89
78309;BME280;67566;42.022;21.356;2023-08-20T09:45:19;98531.72;;;34.22;33.73
78309;BME280;67566;42.022;21.356;2023-08-20T09:47:48;98527.88;;;34.19;32.94
78309;BME280;67566;42.022;21.356;2023-08-20T09:50:17;98527.88;;;34.19;32.65
78309;BME280;67566;42.022;21.356;2023-08-20T09:52:49;98525.09;;;34.29;31.90
78309;BME280;67566;42.022;21.356;2023-08-20T09:55:21;98525.09;;;34.29;31.13
78309;BME280;67566;42.022;21.356;2023-08-20T09:57:47;98526.78;;;34.26;31.85
78309;BME280;67566;42.022;21.356;2023-08-20T10:00:13;98531.19;;;34.42;32.40
78309;BME280;67566;42.022;21.356;2023-08-20T10:02:40;98527.00;;;34.56;31.04
78309;BME280;67566;42.022;21.356;2023-08-20T10:05:07;98527.13;;;34.61;31.41
78309;BME280;67566;42.022;21.356;2023-08-20T10:07:34;98513.00;;;34.59;31.67
78309;BME280;67566;42.022;21.356;2023-08-20T10:10:04;98520.03;;;34.79;31.01
78309;BME280;67566;42.022;21.356;2023-08-20T10:12:31;98518.28;;;34.91;30.78
78309;BME280;67566;42.022;21.356;2023-08-20T10:14:58;98514.44;;;34.97;30.71
78309;BME280;67566;42.022;21.356;2023-08-20T10:17:24;98524.38;;;35.04;30.75
78309;BME280;67566;42.022;21.356;2023-08-20T10:19:52;98513.44;;;35.10;30.52
78309;BME280;67566;42.022;21.356;2023-08-20T10:22:18;98513.06;;;35.17;30.33
78309;BME280;67566;42.022;21.356;2023-08-20T10:24:49;98514.00;;;35.14;29.44
78309;BME280;67566;42.022;21.356;2023-08-20T10:27:28;98510.19;;;35.11;29.30
78309;BME280;67566;42.022;21.356;2023-08-20T10:29:54;98507.44;;;35.11;28.83
78309;BME280;67566;42.022;21.356;2023-08-20T10:32:21;98517.38;;;35.18;28.88
78309;BME280;67566;42.022;21.356;2023-08-20T10:35:06;98501.22;;;34.92;27.66
78309;BME280;67566;42.022;21.356;2023-08-20T10:37:32;98503.59;;;34.75;28.94
78309;BME280;67566;42.022;21.356;2023-08-20T10:39:58;98506.19;;;34.79;28.24
78309;BME280;67566;42.022;21.356;2023-08-20T10:42:27;98498.63;;;34.89;28.56
78309;BME280;67566;42.022;21.356;2023-08-20T10:45:05;98502.44;;;34.91;28.79
78309;BME280;67566;42.022;21.356;2023-08-20T10:47:44;98505.31;;;34.73;27.97
78309;BME280;67566;42.022;21.356;2023-08-20T10:50:11;98501.31;;;34.74;28.88
78309;BME280;67566;42.022;21.356;2023-08-20T10:52:40;98500.81;;;34.85;28.65
78309;BME280;67566;42.022;21.356;2023-08-20T10:55:07;98502.22;;;34.80;28.84
78309;BME280;67566;42.022;21.356;2023-08-20T10:57:36;98507.63;;;34.74;28.26
78309;BME280;67566;42.022;21.356;2023-08-20T11:00:04;98497.16;;;34.78;27.86
78309;BME280;67566;42.022;21.356;2023-08-20T11:02:40;98500.09;;;34.66;27.46
78309;BME280;67566;42.022;21.356;2023-08-20T11:05:20;98492.91;;;34.59;28.56
78309;BME280;67566;42.022;21.356;2023-08-20T11:07:48;98499.84;;;34.88;28.98
78309;BME280;67566;42.022;21.356;2023-08-20T11:10:14;98491.13;;;35.13;29.64
78309;BME280;67566;42.022;21.356;2023-08-20T11:12:41;98484.03;;;35.22;29.52
78309;BME280;67566;42.022;21.356;2023-08-20T11:15:08;98483.19;;;35.30;29.41
78309;BME280;67566;42.022;21.356;2023-08-20T11:17:34;98477.84;;;35.27;29.21
78309;BME280;67566;42.022;21.356;2023-08-20T11:20:00;98480.47;;;35.21;29.15
78309;BME280;67566;42.022;21.356;2023-08-20T11:22:27;98479.31;;;35.37;29.75
78309;BME280;67566;42.022;21.356;2023-08-20T11:24:52;98469.75;;;35.38;28.65
78309;BME280;67566;42.022;21.356;2023-08-20T11:27:18;98471.78;;;35.52;28.37
78309;BME280;67566;42.022;21.356;2023-08-20T11:29:43;98465.94;;;35.35;28.57
78309;BME280;67566;42.022;21.356;2023-08-20T11:32:12;98468.16;;;35.46;28.37
78309;BME280;67566;42.022;21.356;2023-08-20T11:34:37;98471.72;;;35.62;28.67
78309;BME280;67566;42.022;21.356;2023-08-20T11:37:05;98464.75;;;35.66;27.37
78309;BME280;67566;42.022;21.356;2023-08-20T11:39:31;98462.75;;;35.67;27.78
78309;BME280;67566;42.022;21.356;2023-08-20T11:41:57;98461.16;;;35.75;27.84
78309;BME280;67566;42.022;21.356;2023-08-20T11:44:23;98449.50;;;35.71;26.75
78309;BME280;67566;42.022;21.356;2023-08-20T11:46:49;98455.78;;;35.57;27.88
78309;BME280;67566;42.022;21.356;2023-08-20T11:49:26;98454.50;;;35.58;27.29
78309;BME280;67566;42.022;21.356;2023-08-20T11:51:52;98447.03;;;35.73;26.65
78309;BME280;67566;42.022;21.356;2023-08-20T11:54:18;98439.41;;;35.83;27.39
78309;BME280;67566;42.022;21.356;2023-08-20T11:56:51;98444.28;;;35.88;26.29
78309;BME280;67566;42.022;21.356;2023-08-20T11:59:20;98449.53;;;36.01;26.80
78309;BME280;67566;42.022;21.356;2023-08-20T12:01:54;98441.75;;;36.05;26.37
78309;BME280;67566;42.022;21.356;2023-08-20T12:04:23;98442.25;;;36.18;26.50
78309;BME280;67566;42.022;21.356;2023-08-20T12:07:13;98430.00;;;36.10;26.18
78309;BME280;67566;42.022;21.356;2023-08-20T12:09:39;98425.03;;;36.29;25.86
78309;BME280;67566;42.022;21.356;2023-08-20T12:12:06;98428.28;;;36.42;25.94
78309;BME280;67566;42.022;21.356;2023-08-20T12:14:32;98428.28;;;36.42;25.68
78309;BME280;67566;42.022;21.356;2023-08-20T12:16:58;98417.53;;;36.50;26.46
78309;BME280;67566;42.022;21.356;2023-08-20T12:19:24;98427.47;;;36.57;26.12
78309;BME280;67566;42.022;21.356;2023-08-20T12:21:49;98424.97;;;36.59;25.33
78309;BME280;67566;42.022;21.356;2023-08-20T12:24:16;98422.06;;;36.47;25.51
78309;BME280;67566;42.022;21.356;2023-08-20T12:26:41;98415.63;;;36.56;26.79
78309;BME280;67566;42.022;21.356;2023-08-20T12:29:07;98426.09;;;36.67;25.94
78309;BME280;67566;42.022;21.356;2023-08-20T12:31:33;98424.50;;;36.75;25.67
78309;BME280;67566;42.022;21.356;2023-08-20T12:33:59;98421.31;;;36.82;25.58
78309;BME280;67566;42.022;21.356;2023-08-20T12:36:26;98417.63;;;36.91;25.99
78309;BME280;67566;42.022;21.356;2023-08-20T12:38:51;98419.03;;;37.01;25.86
78309;BME280;67566;42.022;21.356;2023-08-20T12:41:18;98414.97;;;37.02;25.95
78309;BME280;67566;42.022;21.356;2023-08-20T12:43:44;98418.19;;;37.16;25.79
78309;BME280;67566;42.022;21.356;2023-08-20T12:46:09;98412.34;;;37.14;25.42
78309;BME280;67566;42.022;21.356;2023-08-20T12:48:35;98399.97;;;37.15;25.06
78309;BME280;67566;42.022;21.356;2023-08-20T12:51:01;98394.31;;;37.24;25.75
78309;BME280;67566;42.022;21.356;2023-08-20T12:53:28;98406.41;;;37.21;24.70
78309;BME280;67566;42.022;21.356;2023-08-20T12:55:53;98409.94;;;37.21;24.10
78309;BME280;67566;42.022;21.356;2023-08-20T12:58:19;98408.72;;;37.08;25.59